AirNav   Air Wisconsin Up To $57,000 Bonus
 
 668 users online  

3FL St Cloud Seaplane Base
St Cloud, Florida, USA


FAA INFORMATION EFFECTIVE 30 DECEMBER 2021

Location

FAA Identifier: 3FL
Lat/Long: 28-16-27.6600N 081-17-05.9800W
28-16.461000N 081-17.099667W
28.2743500,-81.2849944
(estimated)
Elevation: 54 ft. / 16 m (estimated)
From city: 1 mile N of ST CLOUD, FL
Time zone: UTC -5 (UTC -4 during Daylight Saving Time)
Zip code: 34769

Seaplane Base Operations

Seaplane Base use: Open to the public
Activation date: 06/2020
Control tower: no
ARTCC: JACKSONVILLE CENTER
FSS: SAINT PETERSBURG FLIGHT SERVICE STATION
Attendance: UNATNDD
Segmented circle: no

Seaplane Base Communications

CTAF: 122.9
WX AWOS-3PT at ISM (8 nm W): PHONE 407-847-0533
WX ASOS at MCO (9 nm N): PHONE 407-855-5235
WX ASOS at ORL (16 nm N): 127.25 (407-658-6753)

Nearby radio navigation aids

VOR radial/distance  VOR name  Freq  Var
ORLr171/16.3ORLANDO VORTAC112.2000E
MLBr293/35.8MELBOURNE VOR/DME115.8507W

Seaplane Base Services

Runway Information

Runway 9W/27W

Dimensions: 3000 x 200 ft. / 914 x 61 m
Surface: water
RUNWAY 9W  RUNWAY 27W
Latitude: 28-16.460333N28-16.461500N
Longitude: 081-17.379333W081-16.820000W
Elevation: 54.0 ft.54.0 ft.
Traffic pattern: leftleft

Seaplane Base Ownership and Management from official FAA records

Ownership: Publicly-owned
Owner: CITY OF ST CLOUD
1300 NINTH STREET
ST CLOUD, FL 34769
Phone 407-957-7353
Manager: NASEEM GHANDOUR
1300 NINTH STREET
ST CLOUD, FL 34769
Phone 407-957-7246

Additional Remarks

CALL ARPT MGR FOR PRKG RQNS.

Instrument Procedures

There are no published instrument procedures at 3FL.

Some nearby airports with instrument procedures:

KISM - Kissimmee Gateway Airport (8 nm W)
KMCO - Orlando International Airport (9 nm N)
KORL - Executive Airport (16 nm N)
KGIF - Winter Haven Regional Airport (28 nm SW)
X07 - Lake Wales Municipal Airport (29 nm SW)
 
Loc | Ops | Rwys | IFR | FBO | Links
Com | Nav | Svcs | Stats | Notes


 
Aerial photo
No photo
 
Airport distance calculator
Flying to St Cloud Seaplane Base? Find the distance to fly.

From to 3FL

Sunrise and sunset
Times for 26-Jan-2022
 Local
(UTC-5)
 Zulu
(UTC)
Morning civil twilight06:5211:52
Sunrise07:1712:17
Sunset17:5922:59
Evening civil twilight18:2423:24

Current date and time
Zulu (UTC)  26-Jan-2022 13:03:42
Local (UTC-5)  26-Jan-2022 08:03:42
 
METAR
KISM 
8nm W 
261256Z 04005KT 7SM OVC004 12/12 A3007 RMK AO2 RAB15E48 SLP182 T01220117 PNO $
KMCO 
9nm N 
261253Z 01008KT 5SM -RA BR OVC004 13/12 A3006 RMK AO2 RAE26B52 SLP178 P0000 T01280117
KORL 
17nm N 
261253Z 02009KT 6SM BR BKN004 OVC024 13/12 A3006 RMK AO2 RAE29 SLP185 P0001 T01330117
TAF
KISM 
8nm W 
261123Z 2612/2712 03008KT 6SM -SHRA BR SCT004 BKN030 OVC045 TEMPO 2612/2616 4SM SHRA BR BKN004 FM261600 04007KT P6SM VCSH BKN020 BKN050 FM261800 03010KT P6SM BKN025 BKN050 FM270300 36008KT P6SM BKN030 OVC050
KMCO 
9nm N 
261123Z 2612/2718 03008KT 6SM -SHRA BR SCT004 BKN030 OVC045 TEMPO 2612/2616 4SM SHRA BR BKN004 FM261600 02007KT P6SM VCSH BKN025 BKN050 FM261800 03012KT P6SM BKN025 BKN050 FM270300 36009KT P6SM BKN030 OVC050
NOTAMs
Click for the latest NOTAMs
NOTAMs are issued by the DoD/FAA and will open in a separate window not controlled by AirNav.

 

 
 

Would you like to see your business listed on this page?

 If your business provides an interesting product or service to pilots, flight crews, aircraft, or users of the St Cloud Seaplane Base, you should consider listing it here.  To start the listing process, click on the button below
 
Add a business
 

Other Pages about St Cloud Seaplane Base

Update a link
 
Copyright © AirNav, LLC. All rights reserved. Privacy Policy  Contact